CheckWX is a tool to help pilots better visualize weather data.  It is not intended as a substitute for an official pre-flight weather briefing.

06:45:45 UTC

ENSB METAR
Svalbard , Longyear Airport
Longyearbyen, Norway
Current

26 mins ago

ENSB 210620Z 36006KT 330V040 9999 BKN020 M03/M08 Q1029 NOSIG RMK WIND 1400FT 35005KT
Observed
May-21 @ 06:20 UTC
Wind
  • 360° at 6 KTS
Visibility
10,000+ meters
Flight Rules
MVFR
Cloud Levels
  • Broken at 2,000' AGL
Temperature
-3°C / 27°F
Dewpoint
-8°C / 18°F
Humidity
69%
Altimeter
30.38" Hg
Pressure
1028.92 hPa
Previous

56 mins ago

ENSB 210550Z 34005KT 9999 BKN017 M03/M08 Q1029 RMK WIND 1400FT 01006KT
Observed
May-21 @ 05:50 UTC
Wind
  • 340° at 5 KTS
Visibility
10,000+ meters
Flight Rules
MVFR
Cloud Levels
  • Broken at 1,700' AGL
Temperature
-3°C / 27°F
Dewpoint
-8°C / 18°F
Humidity
69%
Altimeter
30.38" Hg
Pressure
1028.92 hPa
Previous

3 hours ago

ENSB 210350Z 35008KT 320V020 9999 BKN020 M03/M07 Q1029 RMK WIND 1400FT 35006KT
Observed
May-21 @ 03:50 UTC
Wind
  • 350° at 8 KTS
Visibility
10,000+ meters
Flight Rules
MVFR
Cloud Levels
  • Broken at 2,000' AGL
Temperature
-3°C / 27°F
Dewpoint
-7°C / 19°F
Humidity
74%
Altimeter
30.38" Hg
Pressure
1028.92 hPa